createdAt,value
2023-05-15T00:00:13.611Z,1.60
2023-05-15T00:02:49.912Z,1.57
2023-05-15T00:05:19.605Z,1.67
2023-05-15T00:07:49.301Z,1.60
2023-05-15T00:10:18.868Z,1.60
2023-05-15T00:12:48.569Z,1.10
2023-05-15T00:15:18.098Z,1.50
2023-05-15T00:17:47.711Z,1.60
2023-05-15T00:20:17.261Z,2.00
2023-05-15T00:22:46.778Z,1.20
2023-05-15T00:25:16.320Z,1.40
2023-05-15T00:27:46.240Z,1.33
2023-05-15T00:30:16.249Z,1.67
2023-05-15T00:32:45.861Z,1.90
2023-05-15T00:35:15.415Z,2.37
2023-05-15T00:37:44.964Z,1.80
2023-05-15T00:40:36.511Z,2.37
2023-05-15T00:43:07.135Z,2.37
2023-05-15T00:45:37.506Z,1.80
2023-05-15T00:48:10.688Z,1.60
2023-05-15T00:50:42.283Z,1.87
2023-05-15T00:53:12.555Z,1.20
2023-05-15T00:55:43.835Z,1.50
2023-05-15T00:58:15.390Z,1.40
2023-05-15T01:00:51.096Z,1.40
2023-05-15T01:03:21.073Z,1.40
2023-05-15T01:05:50.721Z,1.50
2023-05-15T01:08:30.624Z,1.30
2023-05-15T01:11:01.242Z,1.50
2023-05-15T01:13:31.010Z,1.17
2023-05-15T01:16:01.401Z,1.30
2023-05-15T01:18:33.782Z,1.27
2023-05-15T01:21:34.893Z,1.60
2023-05-15T01:24:55.713Z,1.67
2023-05-15T01:27:47.990Z,1.83
2023-05-15T01:30:25.335Z,1.93
2023-05-15T01:33:12.250Z,2.07
2023-05-15T01:35:55.144Z,1.83
2023-05-15T01:38:50.039Z,2.03
2023-05-15T01:41:45.150Z,2.77
2023-05-15T01:44:20.224Z,2.07
2023-05-15T01:46:53.815Z,1.97
2023-05-15T01:49:29.901Z,1.63
2023-05-15T01:52:15.665Z,2.93
2023-05-15T01:54:46.893Z,2.40
2023-05-15T01:57:17.440Z,2.23
2023-05-15T01:59:48.195Z,1.80
2023-05-15T02:02:19.329Z,1.67
2023-05-15T02:04:51.877Z,2.17
2023-05-15T02:07:22.483Z,1.70
2023-05-15T02:09:54.711Z,1.20
2023-05-15T02:12:25.163Z,1.17
2023-05-15T02:14:56.043Z,1.60
2023-05-15T02:17:25.773Z,1.87
2023-05-15T02:19:55.519Z,1.20
2023-05-15T02:22:25.088Z,1.47
2023-05-15T02:24:54.685Z,2.03
2023-05-15T02:27:31.193Z,1.70
2023-05-15T02:30:23.227Z,2.00
2023-05-15T02:33:19.744Z,1.90
2023-05-15T02:35:53.838Z,1.70
2023-05-15T02:38:42.737Z,1.90
2023-05-15T02:41:14.403Z,1.70
2023-05-15T02:43:46.424Z,2.20
2023-05-15T02:46:16.600Z,1.30
2023-05-15T02:48:46.882Z,1.60
2023-05-15T02:51:16.794Z,1.60
2023-05-15T02:53:46.337Z,1.47
2023-05-15T02:56:15.892Z,1.53
2023-05-15T02:58:45.392Z,1.50
2023-05-15T03:01:15.063Z,1.30
2023-05-15T03:03:44.839Z,1.93
2023-05-15T03:06:14.412Z,1.60
2023-05-15T03:08:43.938Z,1.57
2023-05-15T03:11:14.259Z,2.57
2023-05-15T03:13:43.897Z,1.43
2023-05-15T03:16:13.424Z,1.50
2023-05-15T03:18:42.998Z,1.70
2023-05-15T03:21:12.493Z,1.60
2023-05-15T03:23:42.013Z,1.90
2023-05-15T03:26:12.028Z,1.80
2023-05-15T03:28:42.394Z,1.93
2023-05-15T03:31:12.138Z,1.73
2023-05-15T03:33:42.014Z,2.23
2023-05-15T03:36:11.524Z,1.60
2023-05-15T03:38:41.296Z,2.07
2023-05-15T03:41:11.271Z,1.83
2023-05-15T03:43:40.824Z,1.87
2023-05-15T03:46:10.439Z,1.43
2023-05-15T03:48:40.171Z,1.43
2023-05-15T03:51:09.688Z,1.50
2023-05-15T03:53:39.240Z,2.90
2023-05-15T03:56:08.897Z,2.10
2023-05-15T03:58:38.368Z,2.23
2023-05-15T04:01:07.898Z,1.77
2023-05-15T04:03:37.444Z,2.10
2023-05-15T04:06:07.450Z,1.60
2023-05-15T04:08:37.279Z,1.97
2023-05-15T04:11:07.787Z,2.37
2023-05-15T04:13:37.269Z,1.70
2023-05-15T04:16:07.885Z,1.57
2023-05-15T04:18:37.467Z,1.50
2023-05-15T04:21:07.021Z,1.73
2023-05-15T04:23:36.525Z,1.77
2023-05-15T04:26:06.022Z,1.80
2023-05-15T04:28:35.996Z,2.03
2023-05-15T04:31:06.031Z,1.60
2023-05-15T04:33:35.620Z,1.60
2023-05-15T04:36:05.430Z,2.30
2023-05-15T04:38:34.964Z,2.10
2023-05-15T04:41:04.456Z,2.43
2023-05-15T04:43:33.960Z,2.20
2023-05-15T04:46:03.477Z,1.77
2023-05-15T04:48:33.027Z,1.80
2023-05-15T04:51:02.528Z,1.70
2023-05-15T04:53:32.078Z,2.80
2023-05-15T04:56:02.014Z,2.27
2023-05-15T04:58:31.504Z,2.30
2023-05-15T05:01:02.905Z,1.83
2023-05-15T05:03:32.385Z,1.53
2023-05-15T05:06:02.377Z,1.77
2023-05-15T05:08:31.884Z,1.73
2023-05-15T05:11:01.488Z,1.67
2023-05-15T05:13:31.059Z,1.60
2023-05-15T05:16:00.711Z,1.40
2023-05-15T05:18:31.604Z,1.93
2023-05-15T05:21:02.912Z,1.60
2023-05-15T05:23:33.520Z,1.57
2023-05-15T05:26:04.686Z,1.33
2023-05-15T05:28:35.044Z,2.10
2023-05-15T05:31:04.619Z,2.37
2023-05-15T05:33:34.680Z,2.60
2023-05-15T05:36:05.144Z,2.70
2023-05-15T05:38:35.494Z,2.90
2023-05-15T05:41:05.351Z,2.80
2023-05-15T05:43:34.858Z,2.80
2023-05-15T05:46:04.715Z,2.50
2023-05-15T05:48:34.263Z,2.53
2023-05-15T05:51:03.746Z,2.37
2023-05-15T05:53:33.251Z,2.50
2023-05-15T05:56:02.750Z,2.20
2023-05-15T05:58:32.256Z,2.50
2023-05-15T06:01:01.832Z,2.50
2023-05-15T06:03:31.471Z,2.83
2023-05-15T06:06:01.324Z,2.10
2023-05-15T06:08:32.500Z,2.30
2023-05-15T06:11:01.977Z,3.13
2023-05-15T06:13:31.754Z,2.80
2023-05-15T06:16:01.514Z,2.70
2023-05-15T06:18:31.011Z,2.80
2023-05-15T06:21:00.664Z,2.07
2023-05-15T06:23:30.144Z,2.47
2023-05-15T06:25:59.717Z,2.33
2023-05-15T06:28:29.213Z,2.47
2023-05-15T06:30:58.813Z,3.10
2023-05-15T06:33:28.367Z,2.30
2023-05-15T06:35:57.868Z,2.40
2023-05-15T06:38:27.450Z,2.53
2023-05-15T06:40:56.941Z,2.40
2023-05-15T06:43:26.437Z,2.43
2023-05-15T06:45:55.937Z,2.70
2023-05-15T06:48:25.437Z,2.50
2023-05-15T06:50:54.916Z,2.60
2023-05-15T06:53:24.424Z,2.07
2023-05-15T06:55:53.914Z,2.33
2023-05-15T06:58:23.410Z,1.97
2023-05-15T07:00:54.229Z,1.97
2023-05-15T07:03:24.076Z,2.13
2023-05-15T07:05:54.346Z,2.00
2023-05-15T07:08:23.865Z,2.07
2023-05-15T07:10:54.008Z,1.83
2023-05-15T07:13:24.145Z,2.40
2023-05-15T07:15:53.660Z,2.17
2023-05-15T07:18:23.278Z,2.00
2023-05-15T07:20:52.981Z,2.40
2023-05-15T07:23:22.470Z,2.30
2023-05-15T07:25:53.549Z,1.70
2023-05-15T07:28:23.211Z,1.80
2023-05-15T07:30:53.084Z,2.00
2023-05-15T07:33:22.570Z,2.20
2023-05-15T07:35:58.888Z,2.40
2023-05-15T07:38:28.392Z,1.83
2023-05-15T07:40:57.963Z,2.30
2023-05-15T07:43:27.476Z,2.07
2023-05-15T07:45:57.021Z,2.00
2023-05-15T07:48:26.566Z,2.00
2023-05-15T07:50:57.091Z,1.90
2023-05-15T07:53:26.588Z,1.70
2023-05-15T07:55:56.460Z,1.80
2023-05-15T07:58:26.129Z,1.70
2023-05-15T08:00:55.634Z,1.70
2023-05-15T08:03:25.183Z,1.60
2023-05-15T08:05:54.796Z,1.57
2023-05-15T08:08:24.357Z,1.50
2023-05-15T08:10:53.933Z,1.63
2023-05-15T08:13:23.458Z,1.97
2023-05-15T08:15:55.756Z,1.70
2023-05-15T08:18:25.227Z,1.90
2023-05-15T08:20:54.742Z,1.33
2023-05-15T08:23:24.309Z,1.60
2023-05-15T08:25:53.809Z,1.93
2023-05-15T08:28:23.290Z,2.50
2023-05-15T08:30:52.904Z,1.70
2023-05-15T08:33:22.447Z,1.80
2023-05-15T08:35:52.554Z,1.97
2023-05-15T08:38:22.514Z,1.40
2023-05-15T08:40:55.420Z,1.50
2023-05-15T08:43:26.590Z,1.60
2023-05-15T08:45:56.605Z,1.57
2023-05-15T08:48:30.514Z,1.70
2023-05-15T08:51:01.650Z,1.57
2023-05-15T08:53:31.587Z,1.20
2023-05-15T08:56:01.151Z,1.60
2023-05-15T08:58:32.067Z,1.33
2023-05-15T09:01:02.440Z,1.40
2023-05-15T09:03:32.094Z,1.10
2023-05-15T09:06:02.713Z,1.63
2023-05-15T09:08:34.303Z,1.50
2023-05-15T09:11:07.894Z,1.63
2023-05-15T09:13:37.374Z,1.10
2023-05-15T09:16:08.273Z,1.43
2023-05-15T09:18:40.037Z,1.40
2023-05-15T09:21:28.732Z,1.50
2023-05-15T09:24:24.545Z,1.13
2023-05-15T09:27:06.424Z,1.47
2023-05-15T09:29:38.539Z,1.77
2023-05-15T09:32:19.452Z,1.43
2023-05-15T09:34:49.097Z,1.10
2023-05-15T09:37:34.258Z,1.37
2023-05-15T09:40:11.809Z,1.30
2023-05-15T09:42:41.379Z,1.60
2023-05-15T09:45:20.411Z,1.10
2023-05-15T09:47:50.059Z,2.33
2023-05-15T09:50:25.687Z,1.50
2023-05-15T09:52:55.171Z,1.40
2023-05-15T09:55:25.259Z,1.60
2023-05-15T09:58:19.205Z,1.50
2023-05-15T10:00:49.935Z,1.60
2023-05-15T10:03:21.158Z,1.57
2023-05-15T10:05:51.009Z,2.00
2023-05-15T10:08:28.552Z,1.90
2023-05-15T10:11:01.586Z,2.00
2023-05-15T10:13:35.291Z,1.17
2023-05-15T10:16:05.868Z,1.80
2023-05-15T10:18:38.163Z,1.40
2023-05-15T10:21:12.825Z,1.50
2023-05-15T10:23:44.424Z,1.70
2023-05-15T10:26:21.986Z,1.20
2023-05-15T10:28:54.012Z,1.23
2023-05-15T10:31:25.800Z,1.37
2023-05-15T10:33:57.352Z,1.23
2023-05-15T10:36:27.860Z,1.20
2023-05-15T10:38:59.077Z,1.93
2023-05-15T10:41:31.429Z,1.93
2023-05-15T10:44:02.622Z,1.60
2023-05-15T10:46:35.629Z,1.77
2023-05-15T10:49:06.135Z,1.83
2023-05-15T10:51:37.696Z,1.63
2023-05-15T10:54:07.254Z,1.83
2023-05-15T10:56:42.413Z,1.53
2023-05-15T10:59:13.130Z,2.27
2023-05-15T11:01:43.574Z,1.73
2023-05-15T11:04:19.570Z,1.67
2023-05-15T11:06:51.755Z,1.90
2023-05-15T11:09:37.120Z,1.80
2023-05-15T11:12:12.315Z,1.90
2023-05-15T11:14:45.331Z,1.83
2023-05-15T11:17:18.042Z,1.17
2023-05-15T11:19:58.313Z,1.67
2023-05-15T11:22:36.615Z,1.80
2023-05-15T11:25:14.351Z,1.47
2023-05-15T11:27:47.893Z,2.00
2023-05-15T11:30:23.332Z,1.63
2023-05-15T11:32:59.629Z,2.03
2023-05-15T11:35:35.288Z,1.60
2023-05-15T11:38:15.100Z,1.73
2023-05-15T11:40:57.377Z,1.80
2023-05-15T11:43:31.723Z,1.50
2023-05-15T11:46:10.072Z,1.93
2023-05-15T11:48:48.130Z,1.33
2023-05-15T11:51:24.866Z,1.60
2023-05-15T11:53:57.572Z,1.50
2023-05-15T11:56:28.943Z,2.43
2023-05-15T11:59:01.137Z,1.37
2023-05-15T12:01:42.648Z,1.37
2023-05-15T12:04:18.232Z,1.23
2023-05-15T12:06:49.532Z,2.10
2023-05-15T12:09:21.635Z,2.57
2023-05-15T12:11:54.268Z,1.73
2023-05-15T12:14:34.013Z,1.50
2023-05-15T12:17:04.670Z,1.40
2023-05-15T12:19:36.661Z,1.20
2023-05-15T12:22:09.749Z,1.50
2023-05-15T12:24:43.232Z,1.40
2023-05-15T12:27:14.055Z,1.77
2023-05-15T12:29:44.361Z,1.10
2023-05-15T12:32:14.234Z,1.43
2023-05-15T12:34:43.884Z,1.60
2023-05-15T12:37:18.827Z,1.40
2023-05-15T12:40:04.894Z,1.53
2023-05-15T12:42:41.105Z,1.60
2023-05-15T12:45:18.638Z,1.33
2023-05-15T12:47:50.997Z,1.27
2023-05-15T12:50:23.518Z,1.50
2023-05-15T12:52:58.211Z,1.27
2023-05-15T12:55:34.838Z,1.13
2023-05-15T12:58:08.675Z,1.70
2023-05-15T13:00:41.478Z,1.80
2023-05-15T13:03:13.313Z,1.43
2023-05-15T13:05:46.256Z,1.07
2023-05-15T13:08:19.965Z,1.27
2023-05-15T13:10:53.410Z,1.20
2023-05-15T13:13:23.472Z,1.10
2023-05-15T13:15:54.978Z,2.00
2023-05-15T13:18:25.095Z,1.50
2023-05-15T13:20:54.611Z,1.83
2023-05-15T13:23:24.945Z,1.53
2023-05-15T13:25:54.425Z,1.53
2023-05-15T13:28:24.612Z,1.50
2023-05-15T13:30:54.115Z,1.10
2023-05-15T13:33:23.633Z,1.00
2023-05-15T13:38:40.412Z,1.07
2023-05-15T13:41:10.230Z,0.80
2023-05-15T13:43:39.733Z,1.00
2023-05-15T13:46:09.216Z,0.93
2023-05-15T13:48:39.128Z,1.03
2023-05-15T13:51:08.623Z,0.97
2023-05-15T13:53:38.150Z,1.37
2023-05-15T13:56:07.936Z,1.20
2023-05-15T13:58:37.461Z,1.33
2023-05-15T14:01:08.173Z,1.30
2023-05-15T14:03:37.788Z,1.50
2023-05-15T14:06:07.662Z,2.27
2023-05-15T14:08:37.154Z,0.97
2023-05-15T14:11:06.737Z,1.00
2023-05-15T14:13:36.954Z,1.37
2023-05-15T14:16:06.759Z,1.43
2023-05-15T14:18:36.365Z,0.77
2023-05-15T14:21:05.992Z,1.23
2023-05-15T14:23:35.845Z,1.30
2023-05-15T14:26:05.362Z,1.00
2023-05-15T14:28:34.941Z,1.30
2023-05-15T14:31:04.425Z,1.60
2023-05-15T14:33:33.930Z,1.97
2023-05-15T14:36:04.625Z,1.53
2023-05-15T14:38:34.668Z,1.57
2023-05-15T14:41:04.231Z,1.13
2023-05-15T14:43:33.730Z,1.00
2023-05-15T14:46:03.266Z,1.17
2023-05-15T14:48:33.943Z,1.40
2023-05-15T14:51:03.424Z,1.30
2023-05-15T14:53:32.920Z,0.83
2023-05-15T14:56:02.461Z,1.27
2023-05-15T14:58:32.637Z,1.07
2023-05-15T15:01:02.146Z,2.30
2023-05-15T15:03:34.205Z,1.50
2023-05-15T15:06:04.061Z,1.50
2023-05-15T15:08:33.540Z,1.60
2023-05-15T15:11:06.603Z,2.20
2023-05-15T15:13:36.159Z,1.10
2023-05-15T15:16:09.557Z,1.30
2023-05-15T15:18:40.784Z,2.17
2023-05-15T15:21:10.354Z,1.23
2023-05-15T15:23:39.833Z,1.07
2023-05-15T15:26:09.350Z,1.10
2023-05-15T15:28:38.867Z,0.90
2023-05-15T15:31:10.153Z,0.90
2023-05-15T15:33:39.639Z,0.90
2023-05-15T15:36:09.149Z,0.67
2023-05-15T15:38:40.277Z,0.57
2023-05-15T15:41:09.760Z,0.80
2023-05-15T15:43:39.276Z,0.60
2023-05-15T15:46:09.052Z,0.57
2023-05-15T15:48:38.589Z,0.60
2023-05-15T15:51:08.060Z,0.57
2023-05-15T15:53:37.594Z,0.40
2023-05-15T15:56:08.205Z,0.60
2023-05-15T15:58:37.715Z,0.60
2023-05-15T16:01:07.246Z,0.57
2023-05-15T16:03:36.837Z,0.57
2023-05-15T16:06:06.514Z,0.50
2023-05-15T16:08:36.011Z,0.50
2023-05-15T16:11:05.599Z,0.43
2023-05-15T16:13:35.091Z,0.43
2023-05-15T16:16:04.607Z,0.50
2023-05-15T16:18:34.124Z,0.70
2023-05-15T16:21:03.903Z,0.53
2023-05-15T16:23:41.264Z,0.83
2023-05-15T16:26:11.504Z,0.97
2023-05-15T16:28:41.237Z,0.70
2023-05-15T16:31:11.308Z,0.70
2023-05-15T16:33:40.927Z,0.80
2023-05-15T16:36:10.598Z,0.70
2023-05-15T16:38:40.089Z,0.87
2023-05-15T16:41:09.750Z,0.80
2023-05-15T16:43:39.255Z,0.70
2023-05-15T16:46:09.407Z,0.70
2023-05-15T16:48:38.890Z,0.70
2023-05-15T16:51:09.692Z,0.60
2023-05-15T16:53:40.901Z,0.50
2023-05-15T16:56:13.487Z,0.50
2023-05-15T16:58:44.354Z,0.80
2023-05-15T17:01:13.942Z,0.93
2023-05-15T17:03:43.715Z,0.80
2023-05-15T17:06:13.326Z,0.73
2023-05-15T17:08:43.536Z,0.70
2023-05-15T17:11:13.366Z,0.50
2023-05-15T17:13:42.872Z,0.83
2023-05-15T17:16:12.370Z,0.63
2023-05-15T17:18:41.987Z,0.67
2023-05-15T17:21:11.549Z,0.77
2023-05-15T17:23:41.073Z,0.90
2023-05-15T17:26:10.570Z,0.70
2023-05-15T17:28:40.228Z,0.90
2023-05-15T17:31:11.368Z,0.70
2023-05-15T17:33:41.150Z,0.80
2023-05-15T17:36:10.928Z,0.80
2023-05-15T17:38:40.405Z,0.80
2023-05-15T17:41:09.912Z,0.70
2023-05-15T17:43:39.391Z,0.80
2023-05-15T17:46:08.974Z,0.70
2023-05-15T17:48:38.489Z,0.67
2023-05-15T17:51:07.999Z,1.07
2023-05-15T17:53:37.482Z,0.70
2023-05-15T17:56:07.215Z,0.77
2023-05-15T17:58:36.700Z,0.60
2023-05-15T18:01:07.188Z,0.60
2023-05-15T18:03:37.058Z,0.50
2023-05-15T18:06:08.114Z,0.80
2023-05-15T18:08:37.615Z,0.70
2023-05-15T18:11:17.703Z,0.60
2023-05-15T18:13:38.316Z,0.70
2023-05-15T18:16:08.606Z,1.20
2023-05-15T18:18:38.332Z,0.50
2023-05-15T18:21:07.819Z,0.60
2023-05-15T18:23:37.329Z,0.60
2023-05-15T18:26:06.825Z,0.60
2023-05-15T18:28:36.327Z,0.80
2023-05-15T18:31:06.445Z,0.90
2023-05-15T18:33:36.466Z,0.80
2023-05-15T18:36:07.483Z,0.70
2023-05-15T18:38:37.155Z,0.63
2023-05-15T18:41:06.668Z,2.10
2023-05-15T18:43:36.722Z,0.80
2023-05-15T18:46:06.487Z,0.77
2023-05-15T18:48:35.946Z,0.83
2023-05-15T18:51:05.598Z,1.27
2023-05-15T18:53:35.079Z,1.83
2023-05-15T18:56:05.820Z,0.73
2023-05-15T18:58:36.143Z,0.70
2023-05-15T19:01:06.071Z,0.60
2023-05-15T19:03:39.789Z,0.53
2023-05-15T19:06:09.326Z,0.60
2023-05-15T19:08:38.826Z,0.80
2023-05-15T19:11:08.821Z,0.50
2023-05-15T19:13:38.829Z,0.60
2023-05-15T19:16:09.151Z,0.80
2023-05-15T19:18:38.800Z,0.67
2023-05-15T19:21:08.332Z,1.10
2023-05-15T19:23:37.893Z,0.60
2023-05-15T19:26:07.399Z,0.50
2023-05-15T19:28:36.968Z,0.50
2023-05-15T19:31:11.786Z,0.57
2023-05-15T19:33:37.619Z,0.50
2023-05-15T19:36:07.477Z,0.40
2023-05-15T19:38:36.999Z,0.80
2023-05-15T19:41:06.987Z,0.50
2023-05-15T19:43:38.169Z,0.40
2023-05-15T19:46:08.136Z,0.40
2023-05-15T19:48:37.674Z,0.40
2023-05-15T19:51:07.297Z,0.50
2023-05-15T19:53:37.215Z,0.47
2023-05-15T19:56:07.314Z,0.50
2023-05-15T19:58:36.804Z,0.57
2023-05-15T20:01:06.368Z,0.75
2023-05-15T20:03:36.328Z,0.60
2023-05-15T20:06:06.042Z,0.57
2023-05-15T20:08:35.537Z,0.73
2023-05-15T20:11:05.113Z,0.60
2023-05-15T20:13:35.266Z,0.50
2023-05-15T20:16:06.418Z,0.63
2023-05-15T20:18:36.075Z,0.40
2023-05-15T20:21:06.500Z,0.40
2023-05-15T20:23:35.994Z,0.40
2023-05-15T20:26:05.757Z,0.77
2023-05-15T20:28:35.343Z,0.60
2023-05-15T20:31:04.851Z,0.70
2023-05-15T20:33:34.391Z,0.50
2023-05-15T20:36:05.290Z,0.60
2023-05-15T20:38:36.184Z,0.53
2023-05-15T20:41:05.791Z,0.60
2023-05-15T20:43:35.300Z,0.50
2023-05-15T20:46:04.822Z,0.70
2023-05-15T20:48:34.373Z,0.40
2023-05-15T20:51:04.002Z,0.40
2023-05-15T20:53:33.500Z,0.50
2023-05-15T20:56:03.288Z,0.60
2023-05-15T20:58:33.394Z,0.70
2023-05-15T21:01:03.078Z,0.53
2023-05-15T21:03:32.718Z,0.57
2023-05-15T21:06:02.473Z,0.50
2023-05-15T21:08:31.959Z,0.50
2023-05-15T21:11:01.453Z,0.80
2023-05-15T21:13:31.273Z,0.60
2023-05-15T21:16:01.043Z,0.60
2023-05-15T21:18:30.632Z,0.60
2023-05-15T21:21:00.176Z,0.60
2023-05-15T21:23:29.686Z,0.60
2023-05-15T21:25:59.178Z,0.40
2023-05-15T21:28:28.958Z,0.60
2023-05-15T21:31:00.374Z,0.50
2023-05-15T21:33:30.302Z,0.70
2023-05-15T21:35:59.787Z,0.60
2023-05-15T21:38:30.610Z,0.80
2023-05-15T21:41:01.499Z,0.80
2023-05-15T21:43:31.087Z,0.70
2023-05-15T21:46:00.604Z,0.90
2023-05-15T21:48:30.308Z,0.90
2023-05-15T21:51:00.375Z,0.80
2023-05-15T21:53:29.884Z,1.20
2023-05-15T21:56:03.573Z,1.00
2023-05-15T21:58:34.018Z,0.90
2023-05-15T22:01:03.572Z,1.03
2023-05-15T22:03:33.272Z,1.40
2023-05-15T22:06:02.822Z,1.13
2023-05-15T22:08:32.477Z,0.97
2023-05-15T22:11:03.637Z,0.73
2023-05-15T22:13:33.122Z,0.70
2023-05-15T22:16:02.652Z,0.97
2023-05-15T22:18:32.210Z,1.10
2023-05-15T22:21:03.083Z,1.13
2023-05-15T22:23:32.626Z,1.10
2023-05-15T22:26:02.234Z,1.47
2023-05-15T22:28:31.761Z,1.13
2023-05-15T22:31:01.332Z,1.10
2023-05-15T22:33:30.899Z,1.67
2023-05-15T22:36:00.434Z,1.43
2023-05-15T22:38:30.824Z,1.00
2023-05-15T22:41:00.333Z,1.30
2023-05-15T22:43:29.838Z,1.10
2023-05-15T22:45:59.450Z,1.00
2023-05-15T22:48:28.975Z,1.60
2023-05-15T22:50:58.470Z,1.13
2023-05-15T22:53:28.028Z,1.37
2023-05-15T22:55:57.558Z,1.80
2023-05-15T22:58:27.037Z,1.67
2023-05-15T23:00:56.666Z,1.70
2023-05-15T23:03:26.313Z,1.23
2023-05-15T23:05:55.836Z,1.53
2023-05-15T23:08:25.432Z,1.50
2023-05-15T23:10:56.194Z,1.40
2023-05-15T23:13:25.746Z,1.20
2023-05-15T23:15:55.715Z,1.50
2023-05-15T23:18:25.321Z,1.50
2023-05-15T23:20:54.828Z,2.13
2023-05-15T23:23:24.319Z,1.40
2023-05-15T23:25:53.823Z,1.03
2023-05-15T23:28:23.322Z,1.00
2023-05-15T23:30:56.763Z,1.00
2023-05-15T23:33:26.293Z,1.13
2023-05-15T23:35:55.788Z,1.00
2023-05-15T23:38:25.297Z,1.10
2023-05-15T23:40:54.856Z,1.47
2023-05-15T23:43:24.362Z,1.53
2023-05-15T23:45:54.208Z,1.33
2023-05-15T23:48:23.762Z,1.40
2023-05-15T23:50:53.292Z,1.40
2023-05-15T23:53:22.869Z,1.13
2023-05-15T23:55:52.453Z,1.40
2023-05-15T23:58:21.940Z,1.40
